sensor_id;sensor_type;location;lat;lon;timestamp;P1;durP1;ratioP1;P2;durP2;ratioP2
52296;SDS011;38244;51.046;17.038;2023-04-30T01:19:19;0.00;;;0.00;;
52296;SDS011;38244;51.046;17.038;2023-04-30T01:29:28;0.00;;;0.00;;
52296;SDS011;38244;51.046;17.038;2023-04-30T05:00:53;0.00;;;0.00;;
52296;SDS011;38244;51.046;17.038;2023-04-30T05:06:35;0.00;;;0.00;;
52296;SDS011;38244;51.046;17.038;2023-04-30T05:09:24;0.00;;;0.00;;
52296;SDS011;38244;51.046;17.038;2023-04-30T05:12:15;0.00;;;0.00;;
52296;SDS011;38244;51.046;17.038;2023-04-30T05:15:06;0.00;;;0.00;;
52296;SDS011;38244;51.046;17.038;2023-04-30T05:17:58;0.10;;;0.10;;
52296;SDS011;38244;51.046;17.038;2023-04-30T05:20:49;0.10;;;0.10;;
52296;SDS011;38244;51.046;17.038;2023-04-30T05:23:40;0.20;;;0.20;;
52296;SDS011;38244;51.046;17.038;2023-04-30T05:26:32;0.30;;;0.30;;
52296;SDS011;38244;51.046;17.038;2023-04-30T05:29:24;0.30;;;0.30;;
52296;SDS011;38244;51.046;17.038;2023-04-30T05:32:15;0.50;;;0.50;;
52296;SDS011;38244;51.046;17.038;2023-04-30T05:35:07;0.40;;;0.40;;
52296;SDS011;38244;51.046;17.038;2023-04-30T05:37:58;0.00;;;0.00;;
52296;SDS011;38244;51.046;17.038;2023-04-30T05:40:50;0.70;;;0.70;;
52296;SDS011;38244;51.046;17.038;2023-04-30T05:43:41;0.60;;;0.60;;
52296;SDS011;38244;51.046;17.038;2023-04-30T05:46:33;0.50;;;0.50;;
52296;SDS011;38244;51.046;17.038;2023-04-30T05:49:26;0.50;;;0.50;;
52296;SDS011;38244;51.046;17.038;2023-04-30T05:52:18;0.70;;;0.70;;
52296;SDS011;38244;51.046;17.038;2023-04-30T05:57:58;0.40;;;0.40;;
52296;SDS011;38244;51.046;17.038;2023-04-30T06:00:50;0.40;;;0.40;;
52296;SDS011;38244;51.046;17.038;2023-04-30T06:03:44;0.40;;;0.40;;
52296;SDS011;38244;51.046;17.038;2023-04-30T06:06:37;0.40;;;0.40;;
52296;SDS011;38244;51.046;17.038;2023-04-30T06:12:17;0.50;;;0.50;;
52296;SDS011;38244;51.046;17.038;2023-04-30T06:15:11;0.90;;;0.90;;
52296;SDS011;38244;51.046;17.038;2023-04-30T06:18:04;1.00;;;1.00;;
52296;SDS011;38244;51.046;17.038;2023-04-30T06:20:56;0.70;;;0.70;;
52296;SDS011;38244;51.046;17.038;2023-04-30T06:23:47;0.80;;;0.80;;
52296;SDS011;38244;51.046;17.038;2023-04-30T06:26:39;0.70;;;0.70;;
52296;SDS011;38244;51.046;17.038;2023-04-30T06:32:17;0.30;;;0.30;;
52296;SDS011;38244;51.046;17.038;2023-04-30T06:35:09;0.30;;;0.30;;
52296;SDS011;38244;51.046;17.038;2023-04-30T06:37:49;0.20;;;0.20;;
52296;SDS011;38244;51.046;17.038;2023-04-30T06:40:41;0.10;;;0.10;;
52296;SDS011;38244;51.046;17.038;2023-04-30T06:43:35;0.00;;;0.00;;
52296;SDS011;38244;51.046;17.038;2023-04-30T06:46:26;0.00;;;0.00;;
52296;SDS011;38244;51.046;17.038;2023-04-30T06:49:20;0.00;;;0.00;;
52296;SDS011;38244;51.046;17.038;2023-04-30T06:51:56;0.00;;;0.00;;
52296;SDS011;38244;51.046;17.038;2023-04-30T06:57:36;0.00;;;0.00;;
52296;SDS011;38244;51.046;17.038;2023-04-30T07:00:28;0.00;;;0.00;;
52296;SDS011;38244;51.046;17.038;2023-04-30T07:03:19;0.00;;;0.00;;
52296;SDS011;38244;51.046;17.038;2023-04-30T07:06:11;0.00;;;0.00;;
52296;SDS011;38244;51.046;17.038;2023-04-30T07:09:04;0.00;;;0.00;;
52296;SDS011;38244;51.046;17.038;2023-04-30T07:11:58;0.00;;;0.00;;
52296;SDS011;38244;51.046;17.038;2023-04-30T07:14:34;0.00;;;0.00;;
52296;SDS011;38244;51.046;17.038;2023-04-30T07:17:26;0.00;;;0.00;;
52296;SDS011;38244;51.046;17.038;2023-04-30T07:20:20;0.00;;;0.00;;
52296;SDS011;38244;51.046;17.038;2023-04-30T07:22:56;0.00;;;0.00;;
52296;SDS011;38244;51.046;17.038;2023-04-30T07:26:21;0.00;;;0.00;;
52296;SDS011;38244;51.046;17.038;2023-04-30T07:31:57;0.00;;;0.00;;
52296;SDS011;38244;51.046;17.038;2023-04-30T07:34:48;0.00;;;0.00;;
52296;SDS011;38244;51.046;17.038;2023-04-30T07:37:41;0.00;;;0.00;;
52296;SDS011;38244;51.046;17.038;2023-04-30T07:40:34;0.00;;;0.00;;
52296;SDS011;38244;51.046;17.038;2023-04-30T07:43:25;0.00;;;0.00;;
52296;SDS011;38244;51.046;17.038;2023-04-30T07:46:18;0.00;;;0.00;;
52296;SDS011;38244;51.046;17.038;2023-04-30T07:49:33;0.00;;;0.00;;
52296;SDS011;38244;51.046;17.038;2023-04-30T07:52:50;0.00;;;0.00;;
52296;SDS011;38244;51.046;17.038;2023-04-30T08:02:23;0.00;;;0.00;;
52296;SDS011;38244;51.046;17.038;2023-04-30T08:05:17;0.00;;;0.00;;
52296;SDS011;38244;51.046;17.038;2023-04-30T08:08:07;0.00;;;0.00;;
52296;SDS011;38244;51.046;17.038;2023-04-30T08:11:00;0.00;;;0.00;;
52296;SDS011;38244;51.046;17.038;2023-04-30T08:13:53;0.00;;;0.00;;
52296;SDS011;38244;51.046;17.038;2023-04-30T08:19:39;0.00;;;0.00;;
52296;SDS011;38244;51.046;17.038;2023-04-30T08:22:32;0.00;;;0.00;;
52296;SDS011;38244;51.046;17.038;2023-04-30T08:25:23;0.00;;;0.00;;
52296;SDS011;38244;51.046;17.038;2023-04-30T08:28:18;0.00;;;0.00;;
52296;SDS011;38244;51.046;17.038;2023-04-30T08:31:08;0.00;;;0.00;;
52296;SDS011;38244;51.046;17.038;2023-04-30T08:34:00;0.00;;;0.00;;
52296;SDS011;38244;51.046;17.038;2023-04-30T08:36:52;0.00;;;0.00;;
52296;SDS011;38244;51.046;17.038;2023-04-30T08:45:18;0.00;;;0.00;;
52296;SDS011;38244;51.046;17.038;2023-04-30T08:48:02;0.00;;;0.00;;
52296;SDS011;38244;51.046;17.038;2023-04-30T08:56:27;0.00;;;0.00;;
52296;SDS011;38244;51.046;17.038;2023-04-30T08:59:20;0.00;;;0.00;;
52296;SDS011;38244;51.046;17.038;2023-04-30T09:02:09;0.00;;;0.00;;
52296;SDS011;38244;51.046;17.038;2023-04-30T09:07:50;0.00;;;0.00;;
52296;SDS011;38244;51.046;17.038;2023-04-30T09:13:39;0.00;;;0.00;;
52296;SDS011;38244;51.046;17.038;2023-04-30T09:16:49;0.00;;;0.00;;
52296;SDS011;38244;51.046;17.038;2023-04-30T09:19:40;0.00;;;0.00;;
52296;SDS011;38244;51.046;17.038;2023-04-30T09:22:32;0.00;;;0.00;;
52296;SDS011;38244;51.046;17.038;2023-04-30T09:25:24;0.00;;;0.00;;
52296;SDS011;38244;51.046;17.038;2023-04-30T09:31:03;0.00;;;0.00;;
52296;SDS011;38244;51.046;17.038;2023-04-30T09:33:55;0.00;;;0.00;;
52296;SDS011;38244;51.046;17.038;2023-04-30T09:36:55;0.00;;;0.00;;
52296;SDS011;38244;51.046;17.038;2023-04-30T09:39:47;0.00;;;0.00;;
